Aberdeen, New Jersey
Current Conditions -  °F | °C
As of 8:35 AM on Wednesday 22 Oct 2014 (Local Time) from KLDJ Reporting Station
Light Rain Light Rain  
Wind Chill: 15°   Ceiling: 3500
Heat Index: 15°   Visibility: 5mi
Dew Point: 13°   Wind: 13mph
Humidity: 91%   Direction: 30°NNE
Pressure: 29.93"   Gusts: 18mph
Location:  40.4118°N, 74.2499°W
Report Text: KLDJ 221235Z AUTO 03011G16KT 5SM -RA SCT013 BKN035 OVC070 15/13 A2993 RMK AO2 P0004 T01460132
Loading
Personal Weather Stations






























Interactive Weather Map
Tropical Storm Tracking
New forecast layout! Learn more

10-Day Weather Forecast

Advertisements
Track Severe Weather on mobile